Time;durP1;ratioP1;P1;durP2;ratioP2;P2;SDS_P1;SDS_P2;PMS_P1;PMS_P2;Temp;Humidity;BMP_temperature;BMP_pressure;BME280_temperature;BME280_humidity;BME280_pressure;Samples;Min_cycle;Max_cycle;Signal;HPM_P1;HPM_P2
2022/10/06 00:00:05;;;;;;;;;;;11.30;99.90;;;;;;5084175;28;19976;-68
2022/10/06 00:02:32;;;;;;;;;;;11.20;99.90;;;;;;5088102;28;20361;-67
2022/10/06 00:04:58;;;;;;;;;;;11.20;99.90;;;;;;5089006;28;20018;-67
2022/10/06 00:07:23;;;;;;;;;;;11.20;99.90;;;;;;5082619;28;20456;-67
2022/10/06 00:09:49;;;;;;;;;;;11.20;99.90;;;;;;5087849;28;19927;-68
2022/10/06 00:12:14;;;;;;;;;;;11.10;99.90;;;;;;5074636;28;19919;-67
2022/10/06 00:14:40;;;;;;;;;;;11.00;99.90;;;;;;5077420;28;19959;-67
2022/10/06 00:17:06;;;;;;;;;;;10.90;99.90;;;;;;5081616;28;19913;-69
2022/10/06 00:19:31;;;;;;;;;;;10.80;99.90;;;;;;5092665;28;19916;-67
2022/10/06 00:21:57;;;;;;;;;;;10.80;99.90;;;;;;5088950;28;19931;-68
2022/10/06 00:24:22;;;;;;;;;;;10.70;99.90;;;;;;5083515;28;19931;-67
2022/10/06 00:26:48;;;;;;;;;;;10.80;99.90;;;;;;5080864;28;19999;-67
2022/10/06 00:29:13;;;;;;;;;;;10.70;99.90;;;;;;5090773;28;19924;-66
2022/10/06 00:31:39;;;;;;;;;;;10.70;99.90;;;;;;5081257;28;19913;-66
2022/10/06 00:34:05;;;;;;;;;;;10.60;99.90;;;;;;5080989;28;20027;-66
2022/10/06 00:36:30;;;;;;;;;;;10.60;99.90;;;;;;5087938;28;20409;-66
2022/10/06 00:38:56;;;;;;;;;;;10.60;99.90;;;;;;5084212;28;20384;-66
2022/10/06 00:41:22;;;;;;;;;;;10.60;99.90;;;;;;5087999;28;19916;-67
2022/10/06 00:43:51;;;;;;;;;;;10.60;99.90;;;;;;5087984;28;20370;-67
2022/10/06 00:46:17;;;;;;;;;;;10.60;99.90;;;;;;5086695;28;19928;-67
2022/10/06 00:48:43;;;;;;;;;;;10.60;99.90;;;;;;5088981;28;19912;-67
2022/10/06 00:51:09;;;;;;;;;;;10.60;99.90;;;;;;5087027;28;20367;-67
2022/10/06 00:53:35;;;;;;;;;;;10.60;99.90;;;;;;5079519;28;19952;-67
2022/10/06 00:56:00;;;;;;;;;;;10.50;99.90;;;;;;5085792;28;19911;-67
2022/10/06 00:58:26;;;;;;;;;;;10.60;99.90;;;;;;5084875;28;19976;-67
2022/10/06 01:00:54;;;;;;;;;;;10.60;99.90;;;;;;5087833;28;20331;-68
2022/10/06 01:03:26;;;;;;;;;;;10.60;99.90;;;;;;5082851;28;19961;-67
2022/10/06 01:05:53;;;;;;;;;;;10.50;99.90;;;;;;5084964;28;19973;-67
2022/10/06 01:08:21;;;;;;;;;;;10.40;99.90;;;;;;5086251;28;19917;-67
2022/10/06 01:10:46;;;;;;;;;;;10.30;99.90;;;;;;5085562;28;19919;-67
2022/10/06 01:13:13;;;;;;;;;;;10.30;99.90;;;;;;5075230;28;19912;-67
2022/10/06 01:15:41;;;;;;;;;;;10.30;99.90;;;;;;5088400;28;19912;-67
2022/10/06 01:18:12;;;;;;;;;;;10.30;99.90;;;;;;5085482;28;19957;-67
2022/10/06 01:20:44;;;;;;;;;;;10.40;99.90;;;;;;5083848;28;19920;-67
2022/10/06 01:23:10;;;;;;;;;;;10.50;99.90;;;;;;5086334;28;19920;-67
2022/10/06 01:25:36;;;;;;;;;;;10.50;99.90;;;;;;5083657;28;19987;-67
2022/10/06 01:28:02;;;;;;;;;;;10.50;99.90;;;;;;5085723;28;19919;-65
2022/10/06 01:30:30;;;;;;;;;;;10.60;99.90;;;;;;5086106;28;19961;-68
2022/10/06 01:32:55;;;;;;;;;;;10.40;99.90;;;;;;5083333;28;19916;-66
2022/10/06 01:35:22;;;;;;;;;;;10.20;99.90;;;;;;5081464;28;19919;-67
2022/10/06 01:37:48;;;;;;;;;;;10.00;99.90;;;;;;5082753;28;19922;-66
2022/10/06 01:40:14;;;;;;;;;;;9.90;99.90;;;;;;5086211;28;19912;-69
2022/10/06 01:42:39;;;;;;;;;;;9.80;99.90;;;;;;5078493;28;19920;-67
2022/10/06 01:45:05;;;;;;;;;;;9.80;99.90;;;;;;5087445;28;20377;-66
2022/10/06 01:47:32;;;;;;;;;;;9.80;99.90;;;;;;5084228;28;19999;-67
2022/10/06 01:49:58;;;;;;;;;;;9.80;99.90;;;;;;5082638;28;20365;-67
2022/10/06 01:52:24;;;;;;;;;;;9.80;99.90;;;;;;5086405;28;20499;-67
2022/10/06 01:54:50;;;;;;;;;;;9.70;99.90;;;;;;5078990;28;19919;-67
2022/10/06 01:57:15;;;;;;;;;;;9.70;99.90;;;;;;5080286;28;19999;-67
2022/10/06 01:59:42;;;;;;;;;;;9.60;99.90;;;;;;5083039;28;19912;-66
2022/10/06 02:02:07;;;;;;;;;;;9.50;99.90;;;;;;5086708;28;19916;-65
2022/10/06 02:04:33;;;;;;;;;;;9.60;99.90;;;;;;5077928;28;20289;-66
2022/10/06 02:06:58;;;;;;;;;;;9.60;99.90;;;;;;5078824;28;19912;-67
2022/10/06 02:09:24;;;;;;;;;;;9.60;99.90;;;;;;5082095;28;19958;-66
2022/10/06 02:11:50;;;;;;;;;;;9.70;99.90;;;;;;5085028;28;19919;-66
2022/10/06 02:14:16;;;;;;;;;;;9.70;99.90;;;;;;5079331;28;19916;-68
2022/10/06 02:16:42;;;;;;;;;;;9.60;99.90;;;;;;5085869;28;20384;-66
2022/10/06 02:19:08;;;;;;;;;;;9.70;99.90;;;;;;5086156;28;20027;-66
2022/10/06 02:21:34;;;;;;;;;;;9.70;99.90;;;;;;5084600;28;20400;-66
2022/10/06 02:24:00;;;;;;;;;;;9.60;99.90;;;;;;5082139;28;20384;-68
2022/10/06 02:26:25;;;;;;;;;;;9.50;99.90;;;;;;5087810;28;19920;-67
2022/10/06 02:28:51;;;;;;;;;;;9.50;99.90;;;;;;5085414;28;20731;-66
2022/10/06 02:31:16;;;;;;;;;;;9.40;99.90;;;;;;5085679;28;20345;-66
2022/10/06 02:33:43;;;;;;;;;;;9.50;99.90;;;;;;5080393;28;19917;-66
2022/10/06 02:36:10;;;;;;;;;;;9.50;99.90;;;;;;5083653;28;19912;-66
2022/10/06 02:38:36;;;;;;;;;;;9.40;99.90;;;;;;5084139;28;19912;-66
2022/10/06 02:41:01;;;;;;;;;;;9.40;99.90;;;;;;5084583;28;20405;-67
2022/10/06 02:43:30;;;;;;;;;;;9.40;99.90;;;;;;5084921;28;20285;-66
2022/10/06 02:46:03;;;;;;;;;;;9.40;99.90;;;;;;5086643;28;20296;-67
2022/10/06 02:48:29;;;;;;;;;;;9.30;99.90;;;;;;5085923;28;19913;-66
2022/10/06 02:50:58;;;;;;;;;;;9.40;99.90;;;;;;5082959;28;19927;-66
2022/10/06 02:53:24;;;;;;;;;;;9.40;99.90;;;;;;5081393;28;20356;-67
2022/10/06 02:55:55;;;;;;;;;;;9.30;99.90;;;;;;5076799;28;19916;-67
2022/10/06 02:58:21;;;;;;;;;;;9.40;99.90;;;;;;5078567;28;19920;-66
2022/10/06 03:00:46;;;;;;;;;;;9.30;99.90;;;;;;5078591;28;19916;-67
2022/10/06 03:03:12;;;;;;;;;;;9.30;99.90;;;;;;5077380;28;20375;-67
2022/10/06 03:05:37;;;;;;;;;;;9.20;99.90;;;;;;5073615;28;20074;-66
2022/10/06 03:08:05;;;;;;;;;;;9.20;99.90;;;;;;5076659;28;20302;-67
2022/10/06 03:10:30;;;;;;;;;;;9.10;99.90;;;;;;5078950;28;19916;-67
2022/10/06 03:12:56;;;;;;;;;;;9.10;99.90;;;;;;5074100;28;19919;-67
2022/10/06 03:15:21;;;;;;;;;;;9.20;99.90;;;;;;5073742;28;19916;-65
2022/10/06 03:17:48;;;;;;;;;;;9.10;99.90;;;;;;5079065;28;19936;-67
2022/10/06 03:20:13;;;;;;;;;;;9.00;99.90;;;;;;5087693;28;19912;-67
2022/10/06 03:22:39;;;;;;;;;;;9.00;99.90;;;;;;5083768;28;19965;-67
2022/10/06 03:25:05;;;;;;;;;;;9.00;99.90;;;;;;5081544;28;19981;-66
2022/10/06 03:27:30;;;;;;;;;;;8.90;99.90;;;;;;5085108;28;19923;-67
2022/10/06 03:29:56;;;;;;;;;;;8.90;99.90;;;;;;5085997;28;20349;-67
2022/10/06 03:32:22;;;;;;;;;;;9.00;99.90;;;;;;5088612;28;19912;-67
2022/10/06 03:34:48;;;;;;;;;;;8.90;99.90;;;;;;5079765;28;19917;-67
2022/10/06 03:37:14;;;;;;;;;;;8.70;99.90;;;;;;5086970;28;19977;-66
2022/10/06 03:39:39;;;;;;;;;;;8.80;99.90;;;;;;5081916;28;19924;-67
2022/10/06 03:42:05;;;;;;;;;;;8.70;99.90;;;;;;5087369;28;19977;-67
2022/10/06 03:44:33;;;;;;;;;;;8.60;99.90;;;;;;5080250;28;20018;-67
2022/10/06 03:46:59;;;;;;;;;;;8.60;99.90;;;;;;5086425;28;19912;-67
2022/10/06 03:49:25;;;;;;;;;;;8.40;99.90;;;;;;5085753;28;20389;-67
2022/10/06 03:51:52;;;;;;;;;;;8.40;99.90;;;;;;5091676;28;19912;-67
2022/10/06 03:54:17;;;;;;;;;;;8.30;99.90;;;;;;5086128;28;19920;-67
2022/10/06 03:56:43;;;;;;;;;;;8.40;99.90;;;;;;5089075;28;19919;-67
2022/10/06 03:59:10;;;;;;;;;;;8.40;99.90;;;;;;5088792;28;19997;-68
2022/10/06 04:01:37;;;;;;;;;;;8.40;99.90;;;;;;5084542;28;19942;-67
2022/10/06 04:04:03;;;;;;;;;;;8.40;99.90;;;;;;5085432;28;19912;-68
2022/10/06 04:06:29;;;;;;;;;;;8.50;99.90;;;;;;5086413;28;19935;-67
2022/10/06 04:08:55;;;;;;;;;;;8.50;99.90;;;;;;5086535;28;19935;-66
2022/10/06 04:11:28;;;;;;;;;;;8.50;99.90;;;;;;5088160;28;20361;-66
2022/10/06 04:13:56;;;;;;;;;;;8.40;99.90;;;;;;5087141;28;19912;-66
2022/10/06 04:16:23;;;;;;;;;;;8.30;99.90;;;;;;5087913;28;19955;-66
2022/10/06 04:18:49;;;;;;;;;;;8.20;99.90;;;;;;5088367;28;19912;-67
2022/10/06 04:21:16;;;;;;;;;;;8.10;99.90;;;;;;5094798;28;19951;-67
2022/10/06 04:23:41;;;;;;;;;;;8.10;99.90;;;;;;5092022;28;19991;-67
2022/10/06 04:26:09;;;;;;;;;;;8.10;99.90;;;;;;5087990;28;19999;-67
2022/10/06 04:28:36;;;;;;;;;;;8.10;99.90;;;;;;5083997;28;19912;-66
2022/10/06 04:31:04;;;;;;;;;;;8.00;99.90;;;;;;5093832;28;19916;-66
2022/10/06 04:33:33;;;;;;;;;;;8.10;99.90;;;;;;5089703;28;20474;-66
2022/10/06 04:36:03;;;;;;;;;;;8.10;99.90;;;;;;5082824;28;19920;-66
2022/10/06 04:38:32;;;;;;;;;;;8.10;99.90;;;;;;5088997;28;19912;-67
2022/10/06 04:41:13;;;;;;;;;;;8.00;99.90;;;;;;5087953;28;19965;-67
2022/10/06 04:43:39;;;;;;;;;;;8.10;99.90;;;;;;5086380;28;20290;-67
2022/10/06 04:46:05;;;;;;;;;;;8.20;99.90;;;;;;5088567;28;19924;-67
2022/10/06 04:48:31;;;;;;;;;;;8.30;99.90;;;;;;5088640;28;19920;-68
2022/10/06 04:51:00;;;;;;;;;;;8.20;99.90;;;;;;5090358;28;19912;-67
2022/10/06 04:53:26;;;;;;;;;;;8.20;99.90;;;;;;5080615;28;19919;-66
2022/10/06 04:55:59;;;;;;;;;;;8.10;99.90;;;;;;5085250;28;19912;-66
2022/10/06 04:58:25;;;;;;;;;;;8.00;99.90;;;;;;5088153;28;19955;-67
2022/10/06 05:00:50;;;;;;;;;;;7.90;99.90;;;;;;5083816;28;19959;-66
2022/10/06 05:03:16;;;;;;;;;;;8.00;99.90;;;;;;5085395;28;19916;-67
2022/10/06 05:05:41;;;;;;;;;;;8.10;99.90;;;;;;5082880;28;19946;-67
2022/10/06 05:08:07;;;;;;;;;;;8.30;99.90;;;;;;5088884;28;20358;-67
2022/10/06 05:10:32;;;;;;;;;;;8.40;99.90;;;;;;5088465;28;19927;-68
2022/10/06 05:12:58;;;;;;;;;;;8.40;99.90;;;;;;5083899;28;20053;-67
2022/10/06 05:15:23;;;;;;;;;;;8.40;99.90;;;;;;5084318;28;20325;-66
2022/10/06 05:17:49;;;;;;;;;;;8.60;99.90;;;;;;5086343;28;19919;-67
2022/10/06 05:20:14;;;;;;;;;;;8.50;99.90;;;;;;5087555;28;19960;-67
2022/10/06 05:22:40;;;;;;;;;;;8.50;99.90;;;;;;5085933;28;19927;-67
2022/10/06 05:25:06;;;;;;;;;;;8.40;99.90;;;;;;5087735;28;20383;-66
2022/10/06 05:27:31;;;;;;;;;;;8.50;99.90;;;;;;5086441;28;20035;-66
2022/10/06 05:29:57;;;;;;;;;;;8.50;99.90;;;;;;5083129;28;19919;-66
2022/10/06 05:32:22;;;;;;;;;;;8.50;99.90;;;;;;5079486;28;19916;-67
2022/10/06 05:34:48;;;;;;;;;;;8.60;99.90;;;;;;5080694;28;19920;-66
2022/10/06 05:37:13;;;;;;;;;;;8.70;99.90;;;;;;5087871;28;20293;-69
2022/10/06 05:39:39;;;;;;;;;;;8.60;99.90;;;;;;5081511;28;19916;-67
2022/10/06 05:42:04;;;;;;;;;;;8.60;99.90;;;;;;5082996;28;19951;-68
2022/10/06 05:44:30;;;;;;;;;;;8.60;99.90;;;;;;5086474;28;20003;-67
2022/10/06 05:46:55;;;;;;;;;;;8.50;99.90;;;;;;5091895;28;19950;-66
2022/10/06 05:49:21;;;;;;;;;;;8.60;99.90;;;;;;5091752;28;20405;-66
2022/10/06 05:51:46;;;;;;;;;;;8.60;99.90;;;;;;5091730;28;19967;-66
2022/10/06 05:54:13;;;;;;;;;;;8.60;99.90;;;;;;5086133;28;19919;-67
2022/10/06 05:56:39;;;;;;;;;;;8.70;99.90;;;;;;5090605;28;19912;-66
2022/10/06 05:59:05;;;;;;;;;;;8.80;99.90;;;;;;5084664;28;19916;-68
2022/10/06 06:01:32;;;;;;;;;;;8.90;99.90;;;;;;5086752;28;19965;-67
2022/10/06 06:03:59;;;;;;;;;;;9.10;99.90;;;;;;5087640;28;20408;-67
2022/10/06 06:06:26;;;;;;;;;;;9.10;99.90;;;;;;5090515;28;20380;-68
2022/10/06 06:08:59;;;;;;;;;;;9.10;99.90;;;;;;5078069;28;19916;-70
2022/10/06 06:11:26;;;;;;;;;;;9.10;99.90;;;;;;5083561;28;19963;-67
2022/10/06 06:13:54;;;;;;;;;;;9.10;99.90;;;;;;5087491;28;19916;-68
2022/10/06 06:16:19;;;;;;;;;;;9.10;99.90;;;;;;5084846;28;19924;-68
2022/10/06 06:18:45;;;;;;;;;;;9.20;99.90;;;;;;5084321;28;19912;-68
2022/10/06 06:21:11;;;;;;;;;;;9.30;99.90;;;;;;5075879;28;19916;-67
2022/10/06 06:23:37;;;;;;;;;;;9.60;99.90;;;;;;5083991;28;19943;-67
2022/10/06 06:26:05;;;;;;;;;;;9.70;99.90;;;;;;5084194;28;20069;-68
2022/10/06 06:28:31;;;;;;;;;;;9.90;99.90;;;;;;5076627;28;19909;-67
2022/10/06 06:31:05;;;;;;;;;;;9.90;99.90;;;;;;5075437;28;20326;-68
2022/10/06 06:33:31;;;;;;;;;;;10.10;99.90;;;;;;5073807;28;20323;-67
2022/10/06 06:36:02;;;;;;;;;;;10.10;99.90;;;;;;5077320;28;19912;-68
2022/10/06 06:38:28;;;;;;;;;;;10.20;99.90;;;;;;5070497;28;19913;-68
2022/10/06 06:40:54;;;;;;;;;;;10.20;99.90;;;;;;5071900;28;20370;-67
2022/10/06 06:43:19;;;;;;;;;;;10.30;99.90;;;;;;5076730;28;19933;-67
2022/10/06 06:45:45;;;;;;;;;;;10.30;99.90;;;;;;5077479;28;20085;-68
2022/10/06 06:48:14;;;;;;;;;;;10.20;99.90;;;;;;5082078;28;19957;-67
2022/10/06 06:50:40;;;;;;;;;;;10.30;99.90;;;;;;5076075;28;19920;-67
2022/10/06 06:53:06;;;;;;;;;;;10.30;99.90;;;;;;5081094;28;20334;-67
2022/10/06 06:55:31;;;;;;;;;;;10.50;99.90;;;;;;5073013;28;21362;-68
2022/10/06 06:57:57;;;;;;;;;;;10.50;99.90;;;;;;5075517;28;19920;-68
2022/10/06 07:00:22;;;;;;;;;;;10.60;99.90;;;;;;5073923;28;20060;-69
2022/10/06 07:02:54;;;;;;;;;;;10.70;99.90;;;;;;5080276;28;19923;-67
2022/10/06 07:05:20;;;;;;;;;;;10.70;99.90;;;;;;5086779;28;20019;-68
2022/10/06 07:07:46;;;;;;;;;;;10.70;99.90;;;;;;5087014;28;19919;-67
2022/10/06 07:10:11;;;;;;;;;;;10.70;99.90;;;;;;5086863;28;20284;-68
2022/10/06 07:12:37;;;;;;;;;;;10.80;99.90;;;;;;5078913;28;19920;-69
2022/10/06 07:26:01;;;;;;;;;;;11.00;99.90;;;;;;5077463;28;20025;-67
2022/10/06 07:28:29;;;;;;;;;;;11.00;99.90;;;;;;5076981;28;20320;-69
2022/10/06 07:30:55;;;;;;;;;;;11.10;99.90;;;;;;5060070;28;19946;-68
2022/10/06 07:33:20;;;;;;;;;;;11.10;99.90;;;;;;5081187;28;19912;-67
2022/10/06 07:35:48;;;;;;;;;;;11.00;99.90;;;;;;5075689;28;19998;-67
2022/10/06 07:38:13;;;;;;;;;;;11.00;99.90;;;;;;5075944;28;19924;-68
2022/10/06 07:40:41;;;;;;;;;;;11.20;99.90;;;;;;5072559;28;19965;-70
2022/10/06 07:43:07;;;;;;;;;;;11.40;99.90;;;;;;5090289;28;19999;-68
2022/10/06 07:45:37;;;;;;;;;;;11.50;99.90;;;;;;5077254;28;20030;-68
2022/10/06 07:48:07;;;;;;;;;;;11.70;99.90;;;;;;5083723;28;19920;-70
2022/10/06 07:50:33;;;;;;;;;;;11.90;99.90;;;;;;5078806;28;19966;-68
2022/10/06 07:53:07;;;;;;;;;;;12.10;99.90;;;;;;5081450;28;19955;-66
2022/10/06 07:55:33;;;;;;;;;;;12.00;99.90;;;;;;5085724;28;19912;-67
2022/10/06 07:57:59;;;;;;;;;;;12.10;99.90;;;;;;5090433;28;19919;-66
2022/10/06 08:00:26;;;;;;;;;;;12.20;99.90;;;;;;5082386;28;20277;-66
2022/10/06 08:02:53;;;;;;;;;;;12.30;99.90;;;;;;5090140;28;20361;-67
2022/10/06 08:05:19;;;;;;;;;;;12.50;99.90;;;;;;5084911;28;20483;-67
2022/10/06 08:07:45;;;;;;;;;;;12.70;99.90;;;;;;5087770;28;19916;-68
2022/10/06 08:10:10;;;;;;;;;;;12.70;99.90;;;;;;5084907;28;19999;-69
2022/10/06 08:12:36;;;;;;;;;;;12.80;99.90;;;;;;5090526;28;19923;-67
2022/10/06 08:15:05;;;;;;;;;;;12.80;99.90;;;;;;5087336;28;20376;-67
2022/10/06 08:17:31;;;;;;;;;;;12.90;99.90;;;;;;5089329;28;19916;-67
2022/10/06 08:19:57;;;;;;;;;;;12.90;99.90;;;;;;5084425;28;19908;-67
2022/10/06 08:22:26;;;;;;;;;;;13.00;99.90;;;;;;5069297;28;19923;-67
2022/10/06 08:24:53;;;;;;;;;;;13.10;99.90;;;;;;5078012;28;20392;-68
2022/10/06 08:27:19;;;;;;;;;;;13.30;99.90;;;;;;5087051;28;19977;-68
2022/10/06 08:29:44;;;;;;;;;;;13.40;99.90;;;;;;5084785;28;20367;-68
2022/10/06 08:32:10;;;;;;;;;;;13.70;99.90;;;;;;5078376;28;19909;-67
2022/10/06 08:34:35;;;;;;;;;;;13.80;99.90;;;;;;5070894;28;20247;-68
2022/10/06 08:37:02;;;;;;;;;;;13.90;99.90;;;;;;5083972;28;19920;-67
2022/10/06 08:39:29;;;;;;;;;;;14.10;99.90;;;;;;5083853;28;19959;-67
2022/10/06 08:41:56;;;;;;;;;;;14.30;99.90;;;;;;5094664;28;19993;-67
2022/10/06 08:44:37;;;;;;;;;;;14.50;99.90;;;;;;5093483;28;20276;-67
2022/10/06 08:47:10;;;;;;;;;;;14.40;99.90;;;;;;5094353;28;20331;-67
2022/10/06 08:49:37;;;;;;;;;;;14.30;99.90;;;;;;5093042;28;19932;-68
2022/10/06 08:52:16;;;;;;;;;;;14.30;99.90;;;;;;5079938;28;19951;-67
2022/10/06 08:54:55;;;;;;;;;;;14.30;99.90;;;;;;5086996;28;19912;-67
2022/10/06 08:57:39;;;;;;;;;;;14.30;99.90;;;;;;5094295;28;20059;-69
2022/10/06 09:00:12;;;;;;;;;;;14.30;99.90;;;;;;5090349;28;20018;-68
2022/10/06 09:02:41;;;;;;;;;;;14.40;99.90;;;;;;5093819;28;19923;-68
2022/10/06 09:05:08;;;;;;;;;;;14.40;99.90;;;;;;5086691;28;19921;-67
2022/10/06 09:07:37;;;;;;;;;;;14.50;99.90;;;;;;5078986;28;19917;-68
2022/10/06 09:10:21;;;;;;;;;;;14.40;99.90;;;;;;5087420;28;20042;-67
2022/10/06 09:12:52;;;;;;;;;;;14.40;99.90;;;;;;5074758;28;19913;-68
2022/10/06 09:15:37;;;;;;;;;;;14.30;99.90;;;;;;5076237;28;19942;-68
2022/10/06 09:18:13;;;;;;;;;;;14.40;99.90;;;;;;5081042;28;19919;-69
2022/10/06 09:20:42;;;;;;;;;;;14.40;99.90;;;;;;5088251;28;19958;-69
2022/10/06 09:23:12;;;;;;;;;;;14.40;99.90;;;;;;5079833;28;19940;-67
2022/10/06 09:25:38;;;;;;;;;;;14.40;99.90;;;;;;5081947;28;19932;-67
2022/10/06 09:28:10;;;;;;;;;;;14.50;99.90;;;;;;5085416;28;19912;-68
2022/10/06 09:30:36;;;;;;;;;;;14.70;99.90;;;;;;5090093;28;19962;-66
2022/10/06 09:33:03;;;;;;;;;;;14.70;99.90;;;;;;5092738;28;19912;-67
2022/10/06 09:35:30;;;;;;;;;;;14.80;99.90;;;;;;5076823;28;19920;-68
2022/10/06 09:38:03;;;;;;;;;;;14.80;99.90;;;;;;5092297;28;19913;-67
2022/10/06 09:40:37;;;;;;;;;;;14.80;99.90;;;;;;5088795;28;19916;-67
2022/10/06 09:43:24;;;;;;;;;;;14.70;99.90;;;;;;5077975;28;19923;-69
2022/10/06 09:45:50;;;;;;;;;;;14.90;99.90;;;;;;5093245;28;19977;-68
2022/10/06 09:48:23;;;;;;;;;;;15.00;99.90;;;;;;5076058;28;20374;-67
2022/10/06 09:51:07;;;;;;;;;;;14.90;99.90;;;;;;5084436;28;19974;-68
2022/10/06 09:53:32;;;;;;;;;;;14.90;99.90;;;;;;5080358;28;19912;-68
2022/10/06 09:56:01;;;;;;;;;;;15.00;99.90;;;;;;5082841;28;19989;-68
2022/10/06 09:58:28;;;;;;;;;;;15.00;99.90;;;;;;5083543;28;20410;-68
2022/10/06 10:00:55;;;;;;;;;;;15.10;99.90;;;;;;5081378;28;20365;-67
2022/10/06 10:03:22;;;;;;;;;;;15.30;99.90;;;;;;5076040;28;19928;-67
2022/10/06 10:05:53;;;;;;;;;;;15.30;99.90;;;;;;5075805;28;20019;-67
2022/10/06 10:08:20;;;;;;;;;;;15.30;99.90;;;;;;5083232;28;19935;-68
2022/10/06 10:10:46;;;;;;;;;;;15.30;99.90;;;;;;5081280;28;19912;-68
2022/10/06 10:13:25;;;;;;;;;;;15.40;99.90;;;;;;5083219;28;20003;-68
2022/10/06 10:15:53;;;;;;;;;;;15.30;99.90;;;;;;5085912;28;20320;-68
2022/10/06 10:18:25;;;;;;;;;;;15.40;99.90;;;;;;5090145;28;19981;-68
2022/10/06 10:21:04;;;;;;;;;;;15.50;99.90;;;;;;5090748;28;19973;-67
2022/10/06 10:23:41;;;;;;;;;;;15.50;99.90;;;;;;5090708;28;19920;-67
2022/10/06 10:26:16;;;;;;;;;;;15.70;99.90;;;;;;5087938;28;19920;-66
2022/10/06 10:29:00;;;;;;;;;;;15.70;99.90;;;;;;5077711;28;19982;-67
2022/10/06 10:31:26;;;;;;;;;;;15.80;99.90;;;;;;5076451;28;19912;-67
2022/10/06 10:34:07;;;;;;;;;;;15.80;99.90;;;;;;5078869;28;19917;-68
2022/10/06 10:36:37;;;;;;;;;;;15.80;99.90;;;;;;5088601;28;19911;-67
2022/10/06 10:39:04;;;;;;;;;;;16.00;99.90;;;;;;5077515;28;19916;-68
2022/10/06 10:41:36;;;;;;;;;;;16.10;99.90;;;;;;5086155;28;19951;-68
2022/10/06 10:44:07;;;;;;;;;;;16.10;99.90;;;;;;5072576;28;19951;-68
2022/10/06 10:46:35;;;;;;;;;;;16.20;99.90;;;;;;5089563;28;20015;-68
2022/10/06 10:49:10;;;;;;;;;;;16.20;99.90;;;;;;5087866;28;19912;-67
2022/10/06 10:51:48;;;;;;;;;;;16.40;99.90;;;;;;5085547;28;19912;-67
2022/10/06 10:54:14;;;;;;;;;;;16.50;99.90;;;;;;5087882;28;19931;-68
2022/10/06 10:56:40;;;;;;;;;;;16.30;99.90;;;;;;5091254;28;19909;-67
2022/10/06 10:59:12;;;;;;;;;;;16.40;99.90;;;;;;5078662;28;19912;-68
2022/10/06 11:01:48;;;;;;;;;;;16.50;99.90;;;;;;5077771;28;19912;-68
2022/10/06 11:04:14;;;;;;;;;;;16.50;99.90;;;;;;5082146;28;19912;-69
2022/10/06 11:06:42;;;;;;;;;;;16.50;99.90;;;;;;5076431;28;20025;-66
2022/10/06 11:09:20;;;;;;;;;;;16.50;99.90;;;;;;5081523;28;19959;-66
2022/10/06 11:12:00;;;;;;;;;;;16.70;99.90;;;;;;5082767;28;20023;-67
2022/10/06 11:14:32;;;;;;;;;;;16.70;99.90;;;;;;5088008;28;20286;-66
2022/10/06 11:16:58;;;;;;;;;;;16.70;99.90;;;;;;5083025;28;19919;-68
2022/10/06 11:19:26;;;;;;;;;;;16.70;99.90;;;;;;5088589;28;19917;-67
2022/10/06 11:21:54;;;;;;;;;;;16.70;99.90;;;;;;5086308;28;19912;-68
2022/10/06 11:24:30;;;;;;;;;;;16.80;99.90;;;;;;5083660;28;19912;-68
2022/10/06 11:27:16;;;;;;;;;;;16.90;99.90;;;;;;5071486;28;19920;-68
2022/10/06 11:29:55;;;;;;;;;;;16.80;99.90;;;;;;5085763;28;19938;-68
2022/10/06 11:32:26;;;;;;;;;;;16.80;99.90;;;;;;5088348;28;19999;-68
2022/10/06 11:34:52;;;;;;;;;;;16.90;99.90;;;;;;5080173;28;19994;-68
2022/10/06 11:37:17;;;;;;;;;;;16.90;99.90;;;;;;5076691;28;20077;-68
2022/10/06 11:40:01;;;;;;;;;;;17.10;99.90;;;;;;5075496;28;19912;-68
2022/10/06 11:42:27;;;;;;;;;;;17.20;99.90;;;;;;5075374;28;19916;-67
2022/10/06 11:44:52;;;;;;;;;;;17.20;99.90;;;;;;5089549;28;20365;-67
2022/10/06 11:47:22;;;;;;;;;;;17.20;99.90;;;;;;5086141;28;19927;-68
2022/10/06 11:49:54;;;;;;;;;;;17.10;99.90;;;;;;5087518;28;19948;-67
2022/10/06 11:52:20;;;;;;;;;;;17.10;99.90;;;;;;5082607;28;19927;-67
2022/10/06 11:54:48;;;;;;;;;;;17.10;99.90;;;;;;5081950;28;19912;-68
2022/10/06 11:57:23;;;;;;;;;;;17.10;99.90;;;;;;5087705;28;19947;-67
2022/10/06 11:59:50;;;;;;;;;;;17.20;99.90;;;;;;5072695;28;20208;-68
2022/10/06 12:02:33;;;;;;;;;;;17.30;99.90;;;;;;5082695;28;19916;-68
2022/10/06 12:05:08;;;;;;;;;;;17.40;99.90;;;;;;5088959;28;20288;-67
2022/10/06 12:07:52;;;;;;;;;;;17.40;99.90;;;;;;5089738;28;19916;-68
2022/10/06 12:10:26;;;;;;;;;;;17.60;99.90;;;;;;5080892;28;19928;-67
2022/10/06 12:13:10;;;;;;;;;;;17.70;99.90;;;;;;5074349;28;20058;-66
2022/10/06 12:15:42;;;;;;;;;;;17.80;99.90;;;;;;5093764;28;20365;-68
2022/10/06 12:18:27;;;;;;;;;;;17.80;99.90;;;;;;5093078;28;20278;-68
2022/10/06 12:20:52;;;;;;;;;;;18.00;99.90;;;;;;5083632;28;20001;-68
2022/10/06 12:23:37;;;;;;;;;;;18.20;99.90;;;;;;5092627;28;19969;-68
2022/10/06 12:26:12;;;;;;;;;;;18.00;99.90;;;;;;5085986;28;20392;-67
2022/10/06 12:28:43;;;;;;;;;;;18.00;99.90;;;;;;5092543;28;19912;-68
2022/10/06 12:31:20;;;;;;;;;;;17.90;99.90;;;;;;5082993;28;19988;-68
2022/10/06 12:33:47;;;;;;;;;;;18.00;99.90;;;;;;5092104;28;19919;-68
2022/10/06 12:36:25;;;;;;;;;;;18.10;99.90;;;;;;5092531;28;19913;-68
2022/10/06 12:39:06;;;;;;;;;;;18.40;99.90;;;;;;5092576;28;19912;-68
2022/10/06 12:41:51;;;;;;;;;;;18.40;99.90;;;;;;5091857;28;19920;-67
2022/10/06 12:44:50;;;;;;;;;;;18.50;99.90;;;;;;5085038;28;19912;-68
2022/10/06 12:47:33;;;;;;;;;;;18.80;99.90;;;;;;5067294;28;19920;-68
2022/10/06 12:50:04;;;;;;;;;;;19.10;99.90;;;;;;5075711;28;19912;-67
2022/10/06 12:52:46;;;;;;;;;;;18.90;99.50;;;;;;5091433;28;19916;-69
2022/10/06 12:55:11;;;;;;;;;;;18.80;97.90;;;;;;5092792;28;19912;-68
2022/10/06 12:57:44;;;;;;;;;;;18.80;95.60;;;;;;5091545;28;19995;-68
2022/10/06 13:00:28;;;;;;;;;;;18.70;94.80;;;;;;5079326;28;19912;-67
2022/10/06 13:02:56;;;;;;;;;;;18.70;94.90;;;;;;5089934;28;19917;-67
2022/10/06 13:05:22;;;;;;;;;;;19.00;94.10;;;;;;5083514;28;20365;-68
2022/10/06 13:08:01;;;;;;;;;;;19.10;93.50;;;;;;5092030;28;19973;-68
2022/10/06 13:10:31;;;;;;;;;;;19.20;91.60;;;;;;5085665;28;19969;-68
2022/10/06 13:12:57;;;;;;;;;;;19.30;90.90;;;;;;5091265;28;19923;-68
2022/10/06 13:15:33;;;;;;;;;;;19.50;90.30;;;;;;5088487;28;20000;-69
2022/10/06 13:18:10;;;;;;;;;;;19.40;90.50;;;;;;5090417;28;19912;-68
2022/10/06 13:20:36;;;;;;;;;;;19.10;91.00;;;;;;5092544;28;19916;-67
2022/10/06 13:23:25;;;;;;;;;;;19.00;91.30;;;;;;5089050;28;19912;-68
2022/10/06 13:25:55;;;;;;;;;;;18.80;91.70;;;;;;5091382;28;19985;-68
2022/10/06 13:28:28;;;;;;;;;;;18.60;92.90;;;;;;5091267;28;19938;-67
2022/10/06 13:30:58;;;;;;;;;;;18.70;93.50;;;;;;5092806;28;19912;-67
2022/10/06 13:33:26;;;;;;;;;;;18.50;92.70;;;;;;5088536;28;19920;-67
2022/10/06 13:35:52;;;;;;;;;;;18.40;94.20;;;;;;5083792;28;19916;-67
2022/10/06 13:38:19;;;;;;;;;;;18.30;97.70;;;;;;5084710;28;20607;-67
2022/10/06 13:41:00;;;;;;;;;;;18.30;99.90;;;;;;5075815;28;19958;-68
2022/10/06 13:43:26;;;;;;;;;;;18.30;99.90;;;;;;5085160;28;19991;-68
2022/10/06 13:45:52;;;;;;;;;;;18.40;99.90;;;;;;5089963;28;20010;-68
2022/10/06 13:48:19;;;;;;;;;;;18.40;99.90;;;;;;5082279;28;19966;-68
2022/10/06 13:50:46;;;;;;;;;;;18.40;99.90;;;;;;5079010;28;20313;-67
2022/10/06 13:53:25;;;;;;;;;;;18.40;99.90;;;;;;5089804;28;19927;-68
2022/10/06 13:55:51;;;;;;;;;;;18.50;99.90;;;;;;5089509;28;19912;-68
2022/10/06 13:58:17;;;;;;;;;;;18.50;99.90;;;;;;5086756;28;20361;-67
2022/10/06 14:00:46;;;;;;;;;;;18.50;99.90;;;;;;5075919;28;19920;-68
2022/10/06 14:03:38;;;;;;;;;;;18.50;99.90;;;;;;5076385;28;19920;-68
2022/10/06 14:06:15;;;;;;;;;;;18.30;99.90;;;;;;5078476;28;19921;-68
2022/10/06 14:08:43;;;;;;;;;;;18.40;99.90;;;;;;5085557;28;19931;-68
2022/10/06 14:11:09;;;;;;;;;;;18.40;99.00;;;;;;5090628;28;20004;-68
2022/10/06 14:13:50;;;;;;;;;;;18.20;99.00;;;;;;5085953;28;20002;-68
2022/10/06 14:16:20;;;;;;;;;;;18.20;98.20;;;;;;5074369;28;20370;-68
2022/10/06 14:18:52;;;;;;;;;;;18.20;98.40;;;;;;5088425;28;19923;-68
2022/10/06 14:21:30;;;;;;;;;;;18.40;98.00;;;;;;5079187;28;19912;-67
2022/10/06 14:23:56;;;;;;;;;;;18.50;96.30;;;;;;5087731;28;19912;-67
2022/10/06 14:26:23;;;;;;;;;;;18.50;95.10;;;;;;5089471;28;20010;-68
2022/10/06 14:28:51;;;;;;;;;;;18.50;94.30;;;;;;5087488;28;19916;-68
2022/10/06 14:31:20;;;;;;;;;;;18.60;93.50;;;;;;5084818;28;19924;-68
2022/10/06 14:33:47;;;;;;;;;;;18.60;93.10;;;;;;5079137;28;19931;-69
2022/10/06 14:36:18;;;;;;;;;;;18.80;92.50;;;;;;5083891;28;19916;-68
2022/10/06 14:38:44;;;;;;;;;;;19.00;91.10;;;;;;5074976;28;19912;-68
2022/10/06 14:41:10;;;;;;;;;;;18.80;90.80;;;;;;5073129;28;19967;-67